Time;durP1;ratioP1;P1;durP2;ratioP2;P2;SDS_P1;SDS_P2;PMS_P1;PMS_P2;Temp;Humidity;BMP_temperature;BMP_pressure;BME280_temperature;BME280_humidity;BME280_pressure;Samples;Min_cycle;Max_cycle;Signal;HPM_P1;HPM_P2
2022/12/13 00:00:56;;;;;;;10.85;4.55;;;;;;;-3.43;82.28;97969.95;1763915;81;27407;-71
2022/12/13 00:03:23;;;;;;;9.50;4.80;;;;;;;-3.46;82.49;97966.92;1764247;81;25546;-71
2022/12/13 00:05:49;;;;;;;8.18;4.42;;;;;;;-3.48;82.53;97969.88;1763848;81;25423;-71
2022/12/13 00:08:15;;;;;;;10.63;5.08;;;;;;;-3.50;82.37;97967.95;1764265;81;25723;-71
2022/12/13 00:10:42;;;;;;;10.32;5.17;;;;;;;-3.50;82.61;97968.46;1763924;81;25463;-71
2022/12/13 00:13:08;;;;;;;11.90;5.58;;;;;;;-3.49;82.55;97977.59;1764109;81;27636;-72
2022/12/13 00:15:35;;;;;;;11.35;4.75;;;;;;;-3.50;82.39;97975.16;1763991;81;25583;-71
2022/12/13 00:18:01;;;;;;;9.13;4.75;;;;;;;-3.51;82.50;97975.70;1764059;81;25791;-71
2022/12/13 00:20:28;;;;;;;13.83;6.72;;;;;;;-3.50;82.64;97973.30;1763878;81;25766;-71
2022/12/13 00:22:54;;;;;;;11.65;5.87;;;;;;;-3.53;82.62;97976.45;1763836;81;25656;-69
2022/12/13 00:25:21;;;;;;;14.10;6.05;;;;;;;-3.51;82.64;97978.90;1763963;81;27508;-71
2022/12/13 00:27:55;;;;;;;12.10;5.95;;;;;;;-3.51;82.68;97979.72;1764126;81;25725;-72
2022/12/13 00:30:30;;;;;;;12.68;5.65;;;;;;;-3.52;82.57;97984.77;1764204;81;25620;-71
2022/12/13 00:32:56;;;;;;;17.10;6.67;;;;;;;-3.52;82.75;97988.79;1763679;81;25423;-70
2022/12/13 00:35:22;;;;;;;17.27;6.30;;;;;;;-3.48;82.98;97985.12;1763844;81;25681;-71
2022/12/13 00:37:49;;;;;;;14.30;6.12;;;;;;;-3.48;82.80;97990.48;1763988;81;28455;-72
2022/12/13 00:40:16;;;;;;;17.02;6.22;;;;;;;-3.48;82.92;97988.63;1763912;81;25451;-73
2022/12/13 00:42:42;;;;;;;15.40;6.55;;;;;;;-3.45;82.87;97988.66;1759556;81;25712;-73
2022/12/13 00:45:09;;;;;;;15.53;6.95;;;;;;;-3.41;83.03;97994.65;1750390;82;25768;-72
2022/12/13 00:47:36;;;;;;;15.43;7.12;;;;;;;-3.41;82.98;97993.30;1750769;82;25421;-72
2022/12/13 00:50:06;;;;;;;16.17;7.92;;;;;;;-3.37;82.93;98003.55;1750341;82;27507;-72
2022/12/13 00:52:34;;;;;;;13.60;7.17;;;;;;;-3.36;82.81;98007.84;1750574;82;25701;-72
2022/12/13 00:55:00;;;;;;;13.50;6.47;;;;;;;-3.38;82.78;98003.23;1750941;82;25572;-72
2022/12/13 00:57:27;;;;;;;14.25;6.15;;;;;;;-3.38;82.78;98008.08;1750389;82;25773;-72
2022/12/13 00:59:53;;;;;;;13.40;6.08;;;;;;;-3.42;82.75;98008.28;1750859;82;25460;-72
2022/12/13 01:02:20;;;;;;;12.58;5.83;;;;;;;-3.41;82.93;98011.23;1750539;82;28661;-72
2022/12/13 01:04:51;;;;;;;12.43;5.83;;;;;;;-3.41;82.93;98017.94;1750304;82;25511;-72
2022/12/13 01:07:17;;;;;;;;;;;;;;;-3.42;82.95;98014.98;1753255;82;25674;-72
2022/12/13 01:09:43;;;;;;;12.07;5.85;;;;;;;-3.39;82.94;98018.52;1750428;82;25825;-72
2022/12/13 01:12:10;;;;;;;15.08;6.60;;;;;;;-3.38;82.95;98022.82;1750444;82;25413;-72
2022/12/13 01:14:39;;;;;;;14.23;7.25;;;;;;;-3.41;82.73;98021.95;1750443;82;27515;-73
2022/12/13 01:17:07;;;;;;;13.43;6.42;;;;;;;-3.42;82.79;98010.96;1750598;82;25686;-71
2022/12/13 01:19:33;;;;;;;15.90;6.92;;;;;;;-3.44;82.64;98017.89;1750488;82;25678;-72
2022/12/13 01:22:03;;;;;;;14.58;6.78;;;;;;;-3.44;82.56;98015.22;1750357;82;25733;-72
2022/12/13 01:24:31;;;;;;;14.05;7.17;;;;;;;-3.46;82.36;98013.29;1750743;82;25595;-72
2022/12/13 01:26:58;;;;;;;17.57;8.15;;;;;;;-3.41;82.74;98016.08;1750382;82;27408;-71
2022/12/13 01:29:26;;;;;;;15.55;7.00;;;;;;;-3.40;82.10;98018.22;1750528;82;25663;-71
2022/12/13 01:31:53;;;;;;;15.75;7.30;;;;;;;-3.46;81.98;98014.63;1750797;82;25599;-70
2022/12/13 01:34:21;;;;;;;14.58;7.03;;;;;;;-3.49;82.02;98021.01;1750377;82;25692;-71
2022/12/13 01:36:48;;;;;;;15.15;6.90;;;;;;;-3.51;82.14;98013.72;1750855;82;25638;-71
2022/12/13 01:39:21;;;;;;;16.02;8.20;;;;;;;-3.53;82.20;98016.12;1750646;82;27980;-71
2022/12/13 01:41:58;;;;;;;18.57;7.67;;;;;;;-3.54;81.95;98014.47;1750424;82;25766;-71
2022/12/13 01:45:01;;;;;;;16.90;7.42;;;;;;;-3.54;82.23;98014.47;1749502;81;25663;-71
2022/12/13 01:47:51;;;;;;;13.95;6.10;;;;;;;-3.54;81.98;98014.47;1750244;82;25750;-71
2022/12/13 01:50:22;;;;;;;11.48;6.15;;;;;;;-3.56;82.06;98015.25;1750447;82;25637;-71
2022/12/13 01:52:49;;;;;;;10.30;5.97;;;;;;;-3.57;82.03;98013.61;1749969;82;29575;-71
2022/12/13 01:55:19;;;;;;;11.45;6.22;;;;;;;-3.53;82.33;98016.12;1750296;82;25437;-71
2022/12/13 01:57:48;;;;;;;11.22;6.22;;;;;;;-3.53;82.00;98013.95;1750886;82;25730;-71
2022/12/13 02:00:16;;;;;;;15.18;6.55;;;;;;;-3.57;81.90;98022.19;1750611;82;25749;-72
2022/12/13 02:02:44;;;;;;;13.98;6.50;;;;;;;-3.54;82.11;98024.39;1750334;82;25389;-72
2022/12/13 02:05:21;;;;;;;14.00;6.50;;;;;;;-3.53;81.84;98016.12;1750402;82;27488;-72
2022/12/13 02:07:48;;;;;;;15.10;6.83;;;;;;;-3.52;81.83;98024.95;1750285;82;25626;-72
2022/12/13 02:10:15;;;;;;;13.88;6.17;;;;;;;-3.51;81.89;98021.24;1750505;82;25606;-71
2022/12/13 02:12:42;;;;;;;12.60;6.50;;;;;;;-3.47;81.92;98021.56;1750295;82;25762;-72
2022/12/13 02:15:13;;;;;;;13.88;6.17;;;;;;;-3.47;81.76;98024.24;1750870;81;25645;-71
2022/12/13 02:18:06;;;;;;;14.65;6.30;;;;;;;-3.47;81.65;98023.73;1750834;82;27580;-72
2022/12/13 02:21:08;;;;;;;14.53;5.65;;;;;;;-3.45;81.76;98022.15;1749897;82;25621;-72
2022/12/13 02:24:00;;;;;;;11.90;5.90;;;;;;;-3.45;81.48;98026.17;1750368;82;25643;-71
2022/12/13 02:26:47;;;;;;;10.53;5.55;;;;;;;-3.47;81.42;98022.91;1748269;82;25920;-72
2022/12/13 02:29:43;;;;;;;14.05;6.33;;;;;;;-3.48;81.54;98022.11;1750490;82;25465;-71
2022/12/13 02:32:32;;;;;;;12.00;5.75;;;;;;;-3.50;81.27;98020.70;1750364;82;27452;-71
2022/12/13 02:35:29;;;;;;;11.38;4.90;;;;;;;-3.53;81.56;98016.12;1750819;82;25603;-71
2022/12/13 02:38:19;;;;;;;11.75;5.10;;;;;;;-3.54;81.31;98019.03;1750181;82;25706;-72
2022/12/13 02:41:26;;;;;;;10.10;5.05;;;;;;;-3.55;81.45;98018.73;1750369;82;25404;-71
2022/12/13 02:44:01;;;;;;;12.43;6.17;;;;;;;-3.56;81.31;98020.61;1753952;81;25602;-72
2022/12/13 02:46:32;;;;;;;12.30;6.58;;;;;;;-3.55;81.61;98022.23;1757366;81;27528;-71
2022/12/13 02:48:59;;;;;;;;;;;;;;;-3.58;81.21;98023.22;1759915;81;25393;-72
2022/12/13 02:51:27;;;;;;;13.40;5.97;;;;;;;-3.63;81.21;98020.45;1729417;81;25641;-72
2022/12/13 02:53:53;;;;;;;16.62;6.62;;;;;;;-3.66;81.50;98021.20;1756971;81;25747;-72
2022/12/13 02:56:20;;;;;;;14.35;6.55;;;;;;;-3.64;81.49;98019.63;1756955;81;25709;-72
2022/12/13 02:58:53;;;;;;;12.45;7.15;;;;;;;-3.58;81.73;98031.25;1756963;81;27464;-72
2022/12/13 03:01:49;;;;;;;10.88;6.60;;;;;;;-3.59;81.41;98021.60;1757433;81;25630;-72
2022/12/13 03:04:35;;;;;;;10.78;6.12;;;;;;;-3.56;81.63;98027.83;1757027;81;25400;-71
2022/12/13 03:07:13;;;;;;;10.60;5.42;;;;;;;-3.53;81.58;98028.69;1756929;81;25685;-72
2022/12/13 03:10:00;;;;;;;12.88;5.80;;;;;;;-3.56;81.33;98025.97;1757337;81;25641;-72
2022/12/13 03:15:56;;;;;;;11.55;5.25;;;;;;;-3.60;81.44;98025.34;1756944;81;25851;-72
2022/12/13 03:18:26;;;;;;;12.03;5.37;;;;;;;-3.57;81.60;98036.92;1757311;81;25729;-71
2022/12/13 03:20:57;;;;;;;8.67;5.03;;;;;;;-3.54;81.73;98037.24;1757647;81;25768;-71
2022/12/13 03:23:25;;;;;;;11.75;5.75;;;;;;;-3.56;81.47;98033.18;1756812;81;25468;-70
2022/12/13 03:25:55;;;;;;;11.28;6.25;;;;;;;-3.57;81.38;98032.36;1757216;81;27340;-71
2022/12/13 03:28:23;;;;;;;11.38;5.70;;;;;;;-3.56;81.58;98031.84;1757152;81;27162;-71
2022/12/13 03:30:49;;;;;;;8.43;4.60;;;;;;;-3.52;81.72;98039.69;1757034;81;25492;-71
2022/12/13 03:33:15;;;;;;;9.40;4.90;;;;;;;-3.52;81.31;98039.69;1756926;81;25765;-71
2022/12/13 03:35:43;;;;;;;8.53;4.92;;;;;;;-3.55;81.33;98045.52;1757053;81;25648;-72
2022/12/13 03:38:11;;;;;;;9.73;4.67;;;;;;;-3.56;81.50;98045.23;1757352;81;28032;-70
2022/12/13 03:40:38;;;;;;;11.12;4.78;;;;;;;-3.57;81.54;98042.28;1757286;81;25648;-71
2022/12/13 03:43:04;;;;;;;11.25;5.65;;;;;;;-3.59;81.36;98046.53;1756440;81;25448;-71
2022/12/13 03:45:30;;;;;;;7.95;4.35;;;;;;;-3.60;81.41;98044.88;1751016;82;26442;-71
2022/12/13 03:47:57;;;;;;;8.95;4.55;;;;;;;-3.61;81.33;98040.59;1750301;82;25610;-71
2022/12/13 03:50:23;;;;;;;8.98;4.28;;;;;;;-3.64;81.43;98039.72;1750648;82;27812;-72
2022/12/13 03:52:50;;;;;;;9.33;4.67;;;;;;;-3.62;81.54;98041.64;1750100;82;25662;-72
2022/12/13 03:55:18;;;;;;;8.13;4.15;;;;;;;-3.60;81.51;98045.42;1750537;82;25612;-71
2022/12/13 03:57:44;;;;;;;12.68;4.87;;;;;;;-3.60;81.51;98040.07;1750242;82;25804;-71
2022/12/13 04:00:13;;;;;;;9.95;5.20;;;;;;;-3.59;81.54;98043.03;1750357;82;25425;-72
2022/12/13 04:02:39;;;;;;;8.00;4.10;;;;;;;-3.60;81.33;98045.42;1750578;82;27484;-71
2022/12/13 04:05:07;;;;;;;7.05;3.92;;;;;;;-3.61;81.32;98047.28;1750236;82;25626;-71
2022/12/13 04:07:34;;;;;;;8.58;4.37;;;;;;;-3.61;81.32;98042.44;1750215;82;25610;-72
2022/12/13 04:10:01;;;;;;;8.05;3.80;;;;;;;-3.61;81.32;98038.42;1750219;82;25770;-72
2022/12/13 04:15:12;;;;;;;8.15;3.33;;;;;;;-3.60;81.06;98048.11;1750336;82;25641;-71
2022/12/13 04:17:38;;;;;;;7.50;3.60;;;;;;;-3.61;80.88;98045.12;1750205;82;25757;-72
2022/12/13 04:20:07;;;;;;;7.65;4.30;;;;;;;-3.65;81.01;98044.25;1750233;82;25669;-71
2022/12/13 04:22:33;;;;;;;6.75;3.65;;;;;;;-3.66;81.19;98049.33;1750649;82;25839;-72
2022/12/13 04:24:59;;;;;;;6.78;3.92;;;;;;;-3.67;81.09;98047.70;1750475;82;25658;-72
2022/12/13 04:27:26;;;;;;;7.92;4.08;;;;;;;-3.69;80.65;98049.80;1750398;82;27438;-72
2022/12/13 04:29:52;;;;;;;7.47;4.00;;;;;;;-3.72;80.82;98050.27;1750263;82;25651;-72
2022/12/13 04:32:18;;;;;;;41.28;12.28;;;;;;;-3.72;80.79;98049.44;1750293;82;25456;-72
2022/12/13 04:34:45;;;;;;;10.03;4.90;;;;;;;-3.73;80.79;98045.14;1750244;82;25833;-71
2022/12/13 04:37:11;;;;;;;21.20;6.35;;;;;;;-3.75;80.74;98045.92;1750322;82;25455;-71
2022/12/13 04:39:37;;;;;;;125.02;21.42;;;;;;;-3.75;80.60;98052.07;1750268;82;27395;-71
2022/12/13 04:42:05;;;;;;;37.05;10.72;;;;;;;-3.76;80.54;98050.97;1750269;82;25436;-71
2022/12/13 04:44:32;;;;;;;14.60;4.83;;;;;;;-3.77;80.94;98048.83;1750632;79;25389;-71
2022/12/13 04:46:58;;;;;;;94.77;18.65;;;;;;;-3.76;80.93;98043.76;1750352;82;25931;-71
2022/12/13 04:49:25;;;;;;;64.07;15.03;;;;;;;-3.78;80.75;98054.70;1750381;82;25666;-70
2022/12/13 04:51:51;;;;;;;123.87;25.32;;;;;;;-3.79;80.73;98046.39;1750403;82;29611;-71
2022/12/13 04:54:17;;;;;;;180.93;32.60;;;;;;;-3.80;80.91;98054.66;1750298;82;25730;-71
2022/12/13 04:56:44;;;;;;;151.02;29.23;;;;;;;-3.79;81.04;98053.08;1750415;82;25658;-71
2022/12/13 04:59:10;;;;;;;104.78;22.10;;;;;;;-3.73;81.21;98055.85;1750404;82;25766;-70
2022/12/13 05:01:37;;;;;;;150.45;30.08;;;;;;;-3.73;81.10;98055.85;1750419;82;25681;-70
2022/12/13 05:04:04;;;;;;;84.67;21.10;;;;;;;-3.72;81.09;98052.94;1750339;82;27519;-70
2022/12/13 05:06:30;;;;;;;130.40;29.48;;;;;;;-3.75;80.73;98051.28;1750624;82;25421;-70
2022/12/13 05:08:56;;;;;;;127.15;43.92;;;;;;;-3.79;80.58;98057.61;1750902;82;25650;-70
2022/12/13 05:11:23;;;;;;;110.85;26.48;;;;;;;-3.82;80.75;98053.55;1750364;82;25712;-70
2022/12/13 05:13:50;;;;;;;105.87;27.13;;;;;;;-3.83;80.80;98059.94;1750483;82;25633;-70
2022/12/13 05:16:16;;;;;;;184.22;56.48;;;;;;;-3.86;80.94;98062.28;1750422;82;29646;-70
2022/12/13 05:18:42;;;;;;;158.47;65.87;;;;;;;-3.86;81.01;98064.41;1750271;82;25615;-71
2022/12/13 05:21:11;;;;;;;82.37;23.42;;;;;;;-3.88;80.87;98064.37;1750346;82;25482;-71
2022/12/13 05:23:39;;;;;;;81.53;26.25;;;;;;;-3.89;80.99;98070.23;1750382;82;25713;-71
2022/12/13 05:26:05;;;;;;;116.42;34.43;;;;;;;-3.91;81.01;98064.33;1750480;82;25464;-70
2022/12/13 05:28:33;;;;;;;114.25;42.30;;;;;;;-3.93;80.93;98059.20;1750715;82;27437;-70
2022/12/13 05:31:10;;;;;;;82.45;21.37;;;;;;;-3.96;80.87;98070.38;1750235;82;25492;-70
2022/12/13 05:33:36;;;;;;;74.65;23.02;;;;;;;-3.99;80.96;98063.33;1750838;82;25697;-69
2022/12/13 05:36:04;;;;;;;92.17;24.98;;;;;;;-4.02;80.95;98059.26;1750416;82;25735;-70
2022/12/13 05:38:31;;;;;;;75.83;26.00;;;;;;;-4.05;80.94;98059.21;1750721;82;25670;-68
2022/12/13 05:40:58;;;;;;;78.75;23.18;;;;;;;-4.07;81.11;98065.30;1750672;82;27550;-69
2022/12/13 05:43:24;;;;;;;91.90;26.75;;;;;;;-4.07;81.19;98055.94;1750429;82;25538;-70
2022/12/13 05:45:51;;;;;;;133.47;51.63;;;;;;;-4.05;81.30;98061.89;1762969;81;25461;-69
2022/12/13 05:48:18;;;;;;;87.82;25.20;;;;;;;-4.01;81.31;98060.08;1763751;81;25732;-70
2022/12/13 05:50:44;;;;;;;90.92;29.72;;;;;;;-4.00;81.26;98059.02;1763846;81;25737;-69
2022/12/13 05:53:11;;;;;;;77.62;25.65;;;;;;;-3.98;81.28;98063.60;1763919;81;27410;-70
2022/12/13 05:55:38;;;;;;;76.57;23.42;;;;;;;-4.00;81.03;98068.39;1763959;81;25444;-69
2022/12/13 05:58:05;;;;;;;102.85;25.45;;;;;;;-4.05;81.20;98067.75;1763858;81;25471;-70
2022/12/13 06:00:31;;;;;;;68.17;20.95;;;;;;;-4.04;81.42;98067.52;1763713;81;25700;-70
2022/12/13 06:02:59;;;;;;;49.53;24.45;;;;;;;-4.03;81.55;98062.99;1764220;81;25633;-69
2022/12/13 06:05:25;;;;;;;70.80;20.20;;;;;;;-3.98;81.73;98063.60;1764132;81;27335;-69
2022/12/13 06:07:54;;;;;;;68.00;19.27;;;;;;;-3.93;81.76;98068.57;1763664;81;25660;-69
2022/12/13 06:10:21;;;;;;;88.95;30.37;;;;;;;-3.90;81.51;98069.95;1764226;81;25639;-71
2022/12/13 06:12:48;;;;;;;99.40;30.23;;;;;;;-3.86;81.63;98072.45;1763877;81;25729;-70
2022/12/13 06:15:15;;;;;;;83.12;24.60;;;;;;;-3.84;81.54;98075.72;1763833;81;25616;-70
2022/12/13 06:17:42;;;;;;;97.50;25.37;;;;;;;-3.83;81.63;98080.02;1763935;81;26920;-70
2022/12/13 06:20:10;;;;;;;64.15;20.68;;;;;;;-3.84;81.63;98078.39;1763700;81;25682;-70
2022/12/13 06:22:37;;;;;;;63.28;21.30;;;;;;;-3.82;81.53;98079.50;1764189;81;25729;-70
2022/12/13 06:25:04;;;;;;;81.78;22.90;;;;;;;-3.82;81.60;98078.16;1763729;81;25782;-69
2022/12/13 06:27:30;;;;;;;78.80;23.02;;;;;;;-3.80;81.66;98086.24;1764115;81;25612;-69
2022/12/13 06:29:57;;;;;;;65.35;22.32;;;;;;;-3.75;81.71;98091.45;1763753;81;27375;-69
2022/12/13 06:32:24;;;;;;;65.08;21.07;;;;;;;-3.74;81.64;98082.35;1763668;81;25682;-69
2022/12/13 06:34:50;;;;;;;63.50;23.10;;;;;;;-3.72;81.56;98087.75;1764110;81;25462;-68
2022/12/13 06:37:17;;;;;;;65.05;23.12;;;;;;;-3.72;81.52;98089.61;1763834;81;25738;-69
2022/12/13 06:39:43;;;;;;;100.30;39.50;;;;;;;-3.70;81.56;98092.88;1764328;81;25416;-69
2022/12/13 06:42:16;;;;;;;73.20;23.10;;;;;;;-3.70;81.58;98093.70;1763688;81;27408;-68
2022/12/13 06:44:43;;;;;;;90.07;30.77;;;;;;;-3.70;81.59;98099.57;1763929;81;25673;-68
2022/12/13 06:47:11;;;;;;;74.30;28.12;;;;;;;-3.70;81.63;98097.72;1764029;81;25409;-69
2022/12/13 06:49:37;;;;;;;84.62;31.65;;;;;;;-3.71;81.47;98096.06;1764151;81;25683;-68
2022/12/13 06:52:05;;;;;;;70.92;23.70;;;;;;;-3.72;81.53;98096.30;1763783;81;25402;-68
2022/12/13 06:54:32;;;;;;;130.45;38.78;;;;;;;-3.73;81.60;98096.02;1764102;81;27441;-68
2022/12/13 06:56:58;;;;;;;66.50;24.25;;;;;;;-3.73;81.65;98104.05;1763899;81;25589;-66
2022/12/13 06:59:24;;;;;;;77.12;27.98;;;;;;;-3.75;81.49;98101.61;1731833;81;25689;-68
2022/12/13 07:01:51;;;;;;;83.95;32.70;;;;;;;-3.74;81.64;98107.80;1764363;81;26558;-69
2022/12/13 07:04:17;;;;;;;80.83;30.92;;;;;;;-3.70;81.75;98114.30;1763897;81;25681;-68
2022/12/13 07:06:44;;;;;;;82.50;31.62;;;;;;;-3.73;81.51;98112.91;1763732;81;27455;-67
2022/12/13 07:09:10;;;;;;;126.90;48.05;;;;;;;-3.72;81.73;98105.67;1762034;81;25626;-67
2022/12/13 07:11:37;;;;;;;61.63;23.62;;;;;;;-3.71;81.56;98110.00;1758468;81;25730;-65
2022/12/13 07:14:03;;;;;;;78.42;30.85;;;;;;;-3.69;81.47;98111.39;1764075;81;26032;-68
2022/12/13 07:16:29;;;;;;;83.87;33.38;;;;;;;-3.69;81.45;98118.09;1764343;81;25577;-68
2022/12/13 07:18:58;;;;;;;60.88;24.92;;;;;;;-3.69;81.39;98123.44;1764102;81;27466;-68
2022/12/13 07:21:26;;;;;;;53.05;25.37;;;;;;;-3.68;81.29;98128.28;1742390;81;25451;-69
2022/12/13 07:23:52;;;;;;;62.20;26.42;;;;;;;-3.68;80.98;98125.60;1764011;81;25659;-66
2022/12/13 07:26:19;;;;;;;77.40;31.00;;;;;;;-3.71;81.02;98123.39;1763720;81;25834;-69
2022/12/13 07:28:46;;;;;;;74.92;31.45;;;;;;;-3.68;81.04;98122.92;1763992;81;25651;-66
2022/12/13 07:31:14;;;;;;;74.22;29.87;;;;;;;-3.63;81.11;98120.89;1763941;81;27445;-69
2022/12/13 07:33:40;;;;;;;77.10;30.40;;;;;;;-3.56;81.27;98128.27;1764059;81;25727;-69
2022/12/13 07:36:17;;;;;;;65.35;25.85;;;;;;;-3.48;81.20;98136.48;1763758;81;25654;-65
2022/12/13 07:38:46;;;;;;;44.00;20.48;;;;;;;-3.40;80.80;98140.95;1764856;80;25868;-67
2022/12/13 07:41:12;;;;;;;40.48;18.92;;;;;;;-3.40;80.25;98138.78;1765387;81;25673;-69
2022/12/13 07:43:39;;;;;;;44.23;20.55;;;;;;;-3.41;80.18;98140.66;1764472;81;27419;-68
2022/12/13 07:46:07;;;;;;;49.23;21.62;;;;;;;-3.38;80.26;98135.87;1760759;80;25451;-68
2022/12/13 07:48:33;;;;;;;447.07;179.65;;;;;;;-3.32;80.31;98137.61;1763521;80;25585;-68
2022/12/13 07:51:03;;;;;;;34.33;15.85;;;;;;;-3.30;80.00;98135.52;1756984;81;25740;-66
2022/12/13 07:53:31;;;;;;;52.10;21.97;;;;;;;-3.32;79.80;98138.95;1757277;81;25488;-68
2022/12/13 07:56:02;;;;;;;55.90;21.90;;;;;;;-3.27;79.88;98140.41;1757394;81;28112;-66
2022/12/13 07:58:35;;;;;;;84.87;30.97;;;;;;;-3.26;79.66;98135.33;1757187;81;25833;-68
2022/12/13 08:01:06;;;;;;;151.40;59.42;;;;;;;-3.18;79.71;98139.52;1756910;81;25493;-65
2022/12/13 08:03:33;;;;;;;65.72;23.42;;;;;;;-3.21;79.35;98136.78;1757314;81;25850;-68
2022/12/13 08:06:09;;;;;;;37.50;16.73;;;;;;;-3.17;79.67;98135.77;1757158;81;25446;-68
2022/12/13 08:08:36;;;;;;;64.47;27.52;;;;;;;-3.10;79.20;98144.52;1751494;81;27357;-69
2022/12/13 08:11:14;;;;;;;76.10;30.23;;;;;;;-3.13;79.02;98143.65;1761707;81;25602;-68
2022/12/13 08:13:40;;;;;;;48.68;20.55;;;;;;;-3.19;79.11;98142.70;1763044;81;25670;-69
2022/12/13 08:16:11;;;;;;;52.80;23.05;;;;;;;-3.19;79.27;98148.61;1763189;80;26135;-70
2022/12/13 08:18:38;;;;;;;62.47;25.97;;;;;;;-3.20;79.18;98145.11;1759108;81;25667;-68
2022/12/13 08:21:08;;;;;;;59.88;26.30;;;;;;;-3.19;79.21;98144.59;1756963;81;27452;-69
2022/12/13 08:23:36;;;;;;;61.83;25.77;;;;;;;-3.23;79.20;98141.55;1757006;81;25463;-69
2022/12/13 08:26:04;;;;;;;56.20;23.62;;;;;;;-3.24;79.29;98142.62;1757193;81;25676;-67
2022/12/13 08:28:33;;;;;;;76.12;27.32;;;;;;;-3.20;79.24;98149.13;1757372;81;25924;-66
2022/12/13 08:31:06;;;;;;;53.38;22.52;;;;;;;-3.21;79.25;98147.51;1757397;81;25672;-70
2022/12/13 08:33:34;;;;;;;58.73;24.35;;;;;;;-3.15;79.31;98149.25;1757317;81;27367;-69
2022/12/13 08:36:16;;;;;;;57.80;24.87;;;;;;;-3.15;79.26;98155.95;1757431;81;25671;-66
2022/12/13 08:38:44;;;;;;;54.98;21.42;;;;;;;-3.12;78.95;98149.80;1757939;81;25403;-64
2022/12/13 08:41:12;;;;;;;58.80;26.62;;;;;;;-3.13;78.79;98154.89;1757497;81;25794;-64
2022/12/13 08:43:39;;;;;;;42.17;19.67;;;;;;;-3.09;79.05;98164.08;1757070;81;25647;-66
2022/12/13 08:46:07;;;;;;;45.48;21.68;;;;;;;-2.91;78.87;98171.14;1767173;80;27429;-66
2022/12/13 08:48:33;;;;;;;57.98;25.82;;;;;;;-2.79;78.75;98167.11;1772661;80;25647;-64
2022/12/13 08:51:03;;;;;;;51.13;23.25;;;;;;;-2.52;79.04;98175.92;1772820;80;25619;-69
2022/12/13 08:53:29;;;;;;;42.90;18.30;;;;;;;-2.34;77.82;98165.52;1772923;80;25771;-67
2022/12/13 08:56:01;;;;;;;61.85;28.80;;;;;;;-2.22;77.45;98164.66;1772882;80;25609;-68
2022/12/13 08:58:28;;;;;;;67.50;29.72;;;;;;;-2.07;77.44;98165.44;1773192;80;28102;-68
2022/12/13 09:00:55;;;;;;;69.07;29.27;;;;;;;-1.89;77.41;98167.08;1773005;80;25743;-69
2022/12/13 09:03:22;;;;;;;74.62;31.93;;;;;;;-1.77;76.94;98171.84;1773229;80;25552;-68
2022/12/13 09:05:49;;;;;;;66.72;26.82;;;;;;;-1.57;77.32;98175.07;1772777;80;25714;-69
2022/12/13 09:08:17;;;;;;;67.60;26.97;;;;;;;-1.44;77.09;98166.66;1772927;80;25611;-67
2022/12/13 09:10:44;;;;;;;54.53;24.27;;;;;;;-1.37;76.05;98163.81;1772925;80;27461;-69
2022/12/13 09:13:11;;;;;;;65.22;25.75;;;;;;;-1.24;76.41;98169.34;1772980;80;25459;-69
2022/12/13 09:15:39;;;;;;;99.60;46.70;;;;;;;-1.14;75.82;98170.03;1769114;80;25706;-66
2022/12/13 09:18:06;;;;;;;50.85;22.67;;;;;;;-1.02;75.99;98162.66;1773064;80;25848;-65
2022/12/13 09:20:36;;;;;;;54.35;24.37;;;;;;;-0.91;75.35;98164.95;1772812;80;25387;-63
2022/12/13 09:23:03;;;;;;;55.75;21.45;;;;;;;-0.88;75.05;98171.70;1773015;80;25615;-69
2022/12/13 09:25:31;;;;;;;78.67;34.65;;;;;;;-0.84;74.50;98170.13;1772797;80;25760;-63
2022/12/13 09:28:00;;;;;;;52.67;23.40;;;;;;;-0.81;74.78;98167.48;1772992;80;25379;-63
2022/12/13 09:30:27;;;;;;;52.98;22.80;;;;;;;-0.78;74.83;98162.92;1772780;80;25814;-64
2022/12/13 09:32:54;;;;;;;55.60;24.32;;;;;;;-0.71;74.58;98162.22;1773153;80;25402;-66
2022/12/13 09:35:21;;;;;;;44.33;20.52;;;;;;;-0.62;75.11;98161.23;1772966;80;27395;-64
2022/12/13 09:37:48;;;;;;;57.00;25.72;;;;;;;-0.57;73.70;98162.64;1772980;80;25556;-65
2022/12/13 09:40:25;;;;;;;55.83;25.70;;;;;;;-0.58;74.56;98161.55;1772843;80;25682;-65
2022/12/13 09:42:56;;;;;;;61.45;25.80;;;;;;;-0.44;74.83;98163.28;1772796;80;25745;-64
2022/12/13 09:45:24;;;;;;;64.07;29.15;;;;;;;-0.19;74.88;98164.09;1771342;80;25470;-64
2022/12/13 09:47:52;;;;;;;48.90;23.30;;;;;;;0.22;74.72;98157.41;1764122;81;27365;-66
2022/12/13 09:50:32;;;;;;;50.15;22.80;;;;;;;0.53;73.95;98156.29;1764262;81;25410;-65
2022/12/13 09:53:03;;;;;;;39.50;19.65;;;;;;;0.94;72.93;98157.05;1742534;81;25707;-65
2022/12/13 09:55:45;;;;;;;49.27;22.50;;;;;;;1.12;70.95;98159.82;1763867;81;25735;-67
2022/12/13 09:58:30;;;;;;;48.42;21.68;;;;;;;1.06;71.05;98162.22;1764286;81;25614;-67
2022/12/13 10:00:58;;;;;;;41.37;20.50;;;;;;;1.08;72.27;98164.66;1763879;81;28351;-67
2022/12/13 10:03:26;;;;;;;47.62;21.23;;;;;;;1.17;72.48;98162.26;1764028;81;25921;-66
2022/12/13 10:06:20;;;;;;;36.58;16.65;;;;;;;1.23;72.31;98162.03;1763844;81;25403;-66
2022/12/13 10:08:53;;;;;;;41.28;20.60;;;;;;;1.07;70.24;98158.44;1763900;81;25778;-65
2022/12/13 10:11:21;;;;;;;35.05;17.12;;;;;;;0.95;71.15;98165.97;1764203;81;25623;-70
2022/12/13 10:14:11;;;;;;;40.00;17.20;;;;;;;0.85;71.26;98162.66;1764025;81;27448;-67
2022/12/13 10:16:50;;;;;;;44.20;20.48;;;;;;;0.72;71.24;98160.70;1764164;81;25629;-66
2022/12/13 10:19:45;;;;;;;35.90;17.42;;;;;;;0.61;72.05;98165.22;1770195;81;25752;-66
2022/12/13 10:22:18;;;;;;;33.70;15.95;;;;;;;0.47;70.99;98160.02;1769858;80;25558;-66
2022/12/13 10:25:06;;;;;;;38.88;17.95;;;;;;;0.31;71.54;98165.30;1770323;80;25446;-66
2022/12/13 10:27:42;;;;;;;50.52;21.33;;;;;;;0.27;71.47;98161.50;1769844;81;27420;-66
2022/12/13 10:30:21;;;;;;;37.70;17.25;;;;;;;0.21;72.22;98158.48;1769882;81;25677;-65
2022/12/13 10:33:00;;;;;;;34.98;16.57;;;;;;;0.17;70.57;98154.69;1770008;81;25666;-66
2022/12/13 10:35:35;;;;;;;35.17;16.37;;;;;;;-0.13;71.55;98151.47;1770190;80;25744;-68
2022/12/13 10:38:18;;;;;;;26.12;11.93;;;;;;;-0.18;72.29;98155.45;1769973;81;25673;-67
2022/12/13 10:40:47;;;;;;;25.62;12.07;;;;;;;-0.24;71.98;98150.56;1769974;81;27496;-66
2022/12/13 10:43:20;;;;;;;36.10;15.90;;;;;;;-0.32;72.06;98152.39;1769549;81;25502;-66
2022/12/13 10:45:59;;;;;;;38.23;18.05;;;;;;;-0.32;72.85;98151.05;1769716;80;25642;-67
2022/12/13 10:48:39;;;;;;;32.20;14.83;;;;;;;-0.33;72.69;98156.95;1769800;81;25711;-67
2022/12/13 10:51:09;;;;;;;27.45;12.43;;;;;;;-0.30;72.84;98155.63;1770170;81;25729;-65
2022/12/13 10:53:46;;;;;;;28.60;13.08;;;;;;;-0.31;72.01;98166.13;1766412;80;27395;-66
2022/12/13 10:56:18;;;;;;;34.15;14.83;;;;;;;-0.37;71.84;98149.11;1764887;81;25709;-66
2022/12/13 10:58:53;;;;;;;35.88;15.95;;;;;;;-0.52;72.43;98153.27;1764914;81;25645;-65
2022/12/13 11:01:25;;;;;;;28.50;11.70;;;;;;;-0.48;72.80;98152.23;1761033;81;25733;-65
2022/12/13 11:04:20;;;;;;;41.63;17.37;;;;;;;-0.48;72.16;98153.58;1764820;81;25717;-65
2022/12/13 11:06:48;;;;;;;34.40;15.88;;;;;;;-0.45;73.10;98144.17;1765429;81;27425;-66
2022/12/13 11:09:33;;;;;;;38.58;17.48;;;;;;;-0.41;72.81;98147.97;1766565;81;26254;-67
2022/12/13 11:12:16;;;;;;;34.75;15.13;;;;;;;-0.41;73.17;98140.72;1758014;81;25669;-66
2022/12/13 11:15:05;;;;;;;35.28;14.45;;;;;;;-0.34;73.02;98141.87;1761551;81;26316;-67
2022/12/13 11:17:35;;;;;;;36.23;14.80;;;;;;;-0.18;72.68;98137.95;1767054;81;25680;-68
2022/12/13 11:20:06;;;;;;;32.28;14.03;;;;;;;-0.06;72.34;98135.91;1769876;81;27376;-69
2022/12/13 11:22:37;;;;;;;31.40;15.18;;;;;;;0.08;72.31;98138.16;1770073;81;33066;-65
2022/12/13 11:25:20;;;;;;;28.73;13.43;;;;;;;0.08;73.05;98138.98;1770142;80;25610;-65
2022/12/13 11:28:04;;;;;;;24.37;12.28;;;;;;;0.16;72.03;98131.48;1769689;80;25763;-65
2022/12/13 11:30:51;;;;;;;28.50;13.93;;;;;;;0.14;71.80;98134.44;1770241;80;25412;-66
2022/12/13 11:33:29;;;;;;;29.45;14.68;;;;;;;0.18;72.53;98127.48;1769216;81;27460;-65
2022/12/13 11:36:25;;;;;;;26.27;13.60;;;;;;;0.42;71.99;98124.41;1765085;80;25681;-70
2022/12/13 11:39:19;;;;;;;30.77;15.18;;;;;;;0.55;70.97;98124.46;1761408;81;25727;-71
2022/12/13 11:42:03;;;;;;;31.82;14.78;;;;;;;0.67;71.64;98124.28;1762924;81;25774;-70
2022/12/13 11:44:50;;;;;;;42.17;19.57;;;;;;;0.72;70.71;98120.80;1683653;80;25724;-70